createdAt,value
2022-08-02T00:00:35.522Z,22.36
2022-08-02T00:03:03.655Z,22.36
2022-08-02T00:05:31.786Z,22.34
2022-08-02T00:07:59.947Z,22.31
2022-08-02T00:10:30.530Z,22.08
2022-08-02T00:12:58.861Z,21.99
2022-08-02T00:15:27.308Z,21.92
2022-08-02T00:17:56.675Z,22.03
2022-08-02T00:20:24.835Z,22.12
2022-08-02T00:22:53.046Z,22.06
2022-08-02T00:25:21.344Z,21.94
2022-08-02T00:27:50.889Z,21.96
2022-08-02T00:30:19.156Z,22.01
2022-08-02T00:32:47.305Z,21.99
2022-08-02T00:35:15.709Z,21.92
2022-08-02T00:37:44.086Z,21.86
2022-08-02T00:40:13.146Z,21.80
2022-08-02T00:42:41.584Z,21.84
2022-08-02T00:45:11.539Z,21.83
2022-08-02T00:47:39.687Z,21.80
2022-08-02T00:50:08.099Z,21.69
2022-08-02T00:52:36.232Z,21.61
2022-08-02T00:55:04.730Z,21.50
2022-08-02T00:57:32.956Z,21.44
2022-08-02T01:00:01.141Z,21.45
2022-08-02T01:02:30.685Z,21.52
2022-08-02T01:04:58.917Z,21.58
2022-08-02T01:07:28.097Z,21.60
2022-08-02T01:09:56.196Z,21.64
2022-08-02T01:12:24.321Z,21.71
2022-08-02T01:14:54.504Z,21.72
2022-08-02T01:17:30.282Z,21.73
2022-08-02T01:20:09.831Z,21.72
2022-08-02T01:23:02.401Z,21.68
2022-08-02T01:25:51.582Z,21.62
2022-08-02T01:28:37.698Z,21.45
2022-08-02T01:31:13.846Z,21.36
2022-08-02T01:33:46.930Z,21.29
2022-08-02T01:36:19.969Z,21.29
2022-08-02T01:38:51.357Z,21.32
2022-08-02T01:41:22.815Z,21.37
2022-08-02T01:43:56.945Z,21.40
2022-08-02T01:46:26.641Z,21.41
2022-08-02T01:48:57.562Z,21.41
2022-08-02T01:51:46.803Z,21.38
2022-08-02T01:54:18.762Z,21.37
2022-08-02T01:56:49.093Z,21.35
2022-08-02T01:59:22.076Z,21.37
2022-08-02T02:01:53.458Z,21.39
2022-08-02T02:04:23.233Z,21.44
2022-08-02T02:06:52.421Z,21.37
2022-08-02T02:09:23.167Z,21.32
2022-08-02T02:12:09.654Z,21.17
2022-08-02T02:14:51.411Z,21.06
2022-08-02T02:18:10.722Z,21.07
2022-08-02T02:20:14.473Z,21.06
2022-08-02T02:22:42.616Z,21.01
2022-08-02T02:25:12.808Z,20.92
2022-08-02T02:27:51.317Z,20.71
2022-08-02T02:30:21.133Z,20.64
2022-08-02T02:32:52.417Z,20.54
2022-08-02T02:35:22.821Z,20.45
2022-08-02T02:37:52.379Z,20.36
2022-08-02T02:40:21.929Z,20.37
2022-08-02T02:42:52.391Z,20.45
2022-08-02T02:45:23.175Z,20.43
2022-08-02T02:47:52.145Z,20.37
2022-08-02T02:50:21.787Z,20.19
2022-08-02T02:52:50.781Z,20.13
2022-08-02T02:55:19.658Z,20.16
2022-08-02T02:57:48.036Z,20.18
2022-08-02T03:00:17.096Z,20.21
2022-08-02T03:02:47.062Z,20.20
2022-08-02T03:05:17.182Z,20.12
2022-08-02T03:07:45.390Z,20.12
2022-08-02T03:10:13.662Z,20.15
2022-08-02T03:12:41.996Z,20.18
2022-08-02T03:15:15.266Z,20.19
2022-08-02T03:17:45.673Z,20.21
2022-08-02T03:20:16.705Z,20.20
2022-08-02T03:22:46.115Z,20.22
2022-08-02T03:25:15.985Z,20.27
2022-08-02T03:27:44.183Z,20.25
2022-08-02T03:30:14.082Z,20.26
2022-08-02T03:32:46.262Z,20.27
2022-08-02T03:35:23.370Z,20.32
2022-08-02T03:37:55.226Z,20.38
2022-08-02T03:40:24.382Z,20.42
2022-08-02T03:42:53.062Z,20.46
2022-08-02T03:45:21.670Z,20.47
2022-08-02T03:47:50.721Z,20.49
2022-08-02T03:50:22.981Z,20.52
2022-08-02T03:52:52.035Z,20.50
2022-08-02T03:55:20.266Z,20.50
2022-08-02T03:57:48.632Z,20.51
2022-08-02T04:00:20.303Z,20.52
2022-08-02T04:02:49.295Z,20.60
2022-08-02T04:05:17.624Z,20.66
2022-08-02T04:08:33.158Z,20.66
2022-08-02T04:10:56.857Z,20.71
2022-08-02T04:13:31.620Z,20.76
2022-08-02T04:16:04.983Z,20.76
2022-08-02T04:18:42.193Z,20.77
2022-08-02T04:21:14.926Z,20.82
2022-08-02T04:23:48.309Z,20.86
2022-08-02T04:26:17.958Z,20.87
2022-08-02T04:28:46.396Z,20.90
2022-08-02T04:31:15.677Z,20.90
2022-08-02T04:33:44.208Z,20.92
2022-08-02T04:36:14.227Z,20.96
2022-08-02T04:38:44.409Z,21.07
2022-08-02T04:41:14.267Z,21.10
2022-08-02T04:43:42.361Z,21.14
2022-08-02T04:46:10.565Z,21.20
2022-08-02T04:48:38.780Z,21.30
2022-08-02T04:51:07.045Z,21.35
2022-08-02T04:53:35.219Z,21.39
2022-08-02T04:56:05.075Z,21.45
2022-08-02T04:58:40.975Z,21.50
2022-08-02T05:01:09.368Z,21.50
2022-08-02T05:03:37.780Z,21.59
2022-08-02T05:06:18.666Z,21.72
2022-08-02T05:08:52.457Z,21.83
2022-08-02T05:11:34.385Z,21.86
2022-08-02T05:14:04.426Z,21.88
2022-08-02T05:16:32.683Z,21.95
2022-08-02T05:19:01.988Z,22.02
2022-08-02T05:21:31.769Z,21.85
2022-08-02T05:24:00.219Z,21.71
2022-08-02T05:26:29.967Z,21.68
2022-08-02T05:28:58.135Z,21.76
2022-08-02T05:31:26.370Z,21.78
2022-08-02T05:33:54.511Z,21.77
2022-08-02T05:36:22.779Z,21.76
2022-08-02T05:38:52.949Z,21.83
2022-08-02T05:41:29.319Z,21.81
2022-08-02T05:43:57.457Z,21.94
2022-08-02T05:46:26.067Z,22.03
2022-08-02T05:48:54.266Z,22.18
2022-08-02T05:51:25.468Z,22.32
2022-08-02T05:53:57.781Z,22.40
2022-08-02T05:56:36.340Z,22.55
2022-08-02T05:59:05.875Z,22.68
2022-08-02T06:01:37.879Z,22.87
2022-08-02T06:04:08.293Z,22.85
2022-08-02T06:06:37.793Z,22.93
2022-08-02T06:09:10.895Z,23.02
2022-08-02T06:12:01.817Z,23.06
2022-08-02T06:14:33.216Z,23.11
2022-08-02T06:17:04.928Z,23.14
2022-08-02T06:19:36.585Z,23.12
2022-08-02T06:22:33.858Z,23.24
2022-08-02T06:25:11.737Z,23.34
2022-08-02T06:27:59.631Z,23.43
2022-08-02T06:30:28.367Z,23.54
2022-08-02T06:32:57.242Z,23.64
2022-08-02T06:35:32.987Z,23.69
2022-08-02T06:38:02.869Z,23.73
2022-08-02T06:40:33.816Z,23.77
2022-08-02T06:43:12.208Z,23.64
2022-08-02T06:45:41.262Z,23.58
2022-08-02T06:48:10.279Z,23.51
2022-08-02T06:50:39.810Z,23.54
2022-08-02T06:53:08.352Z,23.64
2022-08-02T06:55:43.946Z,23.72
2022-08-02T06:58:14.287Z,23.78
2022-08-02T07:00:43.763Z,23.92
2022-08-02T07:03:12.215Z,24.01
2022-08-02T07:05:41.631Z,24.10
2022-08-02T07:08:09.827Z,24.25
2022-08-02T07:10:37.922Z,24.30
2022-08-02T07:13:07.371Z,24.31
2022-08-02T07:15:37.845Z,24.38
2022-08-02T07:18:06.653Z,24.37
2022-08-02T07:20:36.243Z,24.42
2022-08-02T07:23:04.458Z,24.53
2022-08-02T07:26:03.048Z,24.63
2022-08-02T07:28:24.281Z,24.76
2022-08-02T07:30:54.342Z,24.89
2022-08-02T07:33:38.468Z,25.01
2022-08-02T07:36:09.731Z,25.03
2022-08-02T07:38:45.595Z,25.08
2022-08-02T07:41:13.889Z,25.16
2022-08-02T07:43:42.135Z,25.22
2022-08-02T07:46:11.652Z,25.29
2022-08-02T07:48:39.853Z,25.36
2022-08-02T07:51:08.052Z,25.42
2022-08-02T07:53:50.961Z,25.49
2022-08-02T07:56:24.377Z,25.58
2022-08-02T07:58:52.504Z,25.59
2022-08-02T08:01:22.311Z,25.63
2022-08-02T08:03:50.604Z,25.73
2022-08-02T08:06:18.719Z,25.77
2022-08-02T08:08:56.892Z,25.86
2022-08-02T08:11:25.112Z,25.91
2022-08-02T08:13:53.359Z,25.99
2022-08-02T08:16:22.950Z,26.04
2022-08-02T08:18:51.298Z,26.02
2022-08-02T08:21:19.464Z,26.09
2022-08-02T08:23:47.742Z,26.13
2022-08-02T08:26:16.707Z,26.18
2022-08-02T08:28:44.797Z,26.19
2022-08-02T08:31:12.948Z,26.24
2022-08-02T08:33:42.580Z,26.33
2022-08-02T08:36:10.777Z,26.44
2022-08-02T08:38:38.908Z,26.44
2022-08-02T08:41:08.391Z,26.57
2022-08-02T08:43:36.657Z,26.70
2022-08-02T08:46:06.161Z,26.69
2022-08-02T08:48:37.239Z,26.50
2022-08-02T08:51:12.929Z,26.50
2022-08-02T08:53:45.486Z,26.66
2022-08-02T08:56:16.464Z,26.85
2022-08-02T08:58:48.520Z,26.93
2022-08-02T09:01:17.244Z,27.05
2022-08-02T09:03:46.474Z,27.20
2022-08-02T09:06:17.986Z,27.29
2022-08-02T09:08:46.491Z,27.28
2022-08-02T09:11:16.660Z,27.32
2022-08-02T09:13:52.243Z,27.16
2022-08-02T09:16:31.254Z,27.16
2022-08-02T09:18:59.735Z,27.30
2022-08-02T09:21:41.573Z,27.43
2022-08-02T09:24:18.317Z,27.28
2022-08-02T09:26:47.251Z,27.28
2022-08-02T09:29:16.140Z,27.36
2022-08-02T09:31:49.839Z,27.50
2022-08-02T09:34:19.870Z,27.47
2022-08-02T09:36:54.542Z,27.50
2022-08-02T09:39:23.917Z,27.59
2022-08-02T09:41:52.100Z,27.61
2022-08-02T09:44:20.616Z,27.51
2022-08-02T09:46:48.866Z,27.74
2022-08-02T09:49:18.244Z,27.88
2022-08-02T09:51:53.692Z,27.84
2022-08-02T09:54:24.474Z,27.79
2022-08-02T09:57:00.552Z,27.93
2022-08-02T09:59:31.137Z,27.99
2022-08-02T10:02:17.162Z,28.07
2022-08-02T10:04:52.734Z,28.34
2022-08-02T10:07:26.735Z,28.60
2022-08-02T10:09:56.070Z,28.47
2022-08-02T10:12:24.851Z,28.43
2022-08-02T10:14:56.185Z,28.25
2022-08-02T10:17:25.396Z,28.44
2022-08-02T10:20:03.381Z,28.47
2022-08-02T10:22:38.941Z,28.53
2022-08-02T10:25:11.596Z,28.61
2022-08-02T10:28:04.258Z,28.52
2022-08-02T10:30:30.610Z,28.75
2022-08-02T10:33:01.058Z,28.96
2022-08-02T10:35:32.409Z,29.21
2022-08-02T10:38:08.135Z,29.45
2022-08-02T10:40:48.152Z,29.64
2022-08-02T10:43:47.534Z,29.70
2022-08-02T10:46:32.556Z,29.83
2022-08-02T10:52:11.367Z,30.07
2022-08-02T10:54:42.639Z,30.10
2022-08-02T10:57:19.718Z,30.23
2022-08-02T10:59:48.784Z,30.31
2022-08-02T11:02:40.880Z,30.11
2022-08-02T11:05:16.509Z,30.48
2022-08-02T11:07:49.265Z,30.85
2022-08-02T11:10:42.010Z,30.80
2022-08-02T11:13:15.946Z,30.71
2022-08-02T11:16:06.453Z,30.85
2022-08-02T11:19:06.625Z,30.99
2022-08-02T11:21:40.287Z,30.80
2022-08-02T11:24:33.299Z,30.61
2022-08-02T11:27:03.934Z,31.16
2022-08-02T11:29:38.339Z,31.58
2022-08-02T11:32:07.703Z,31.58
2022-08-02T11:34:37.374Z,31.60
2022-08-02T11:37:07.695Z,31.99
2022-08-02T11:39:35.827Z,32.03
2022-08-02T11:42:06.129Z,31.11
2022-08-02T11:44:43.479Z,31.07
2022-08-02T11:47:14.464Z,31.19
2022-08-02T11:49:44.863Z,31.24
2022-08-02T11:52:15.587Z,31.42
2022-08-02T11:54:44.916Z,31.01
2022-08-02T11:57:20.264Z,31.04
2022-08-02T11:59:51.133Z,31.37
2022-08-02T12:02:20.174Z,30.81
2022-08-02T12:04:58.385Z,30.78
2022-08-02T12:07:34.507Z,30.24
2022-08-02T12:10:05.861Z,30.12
2022-08-02T12:12:35.593Z,30.33
2022-08-02T12:15:06.463Z,30.12
2022-08-02T12:17:52.199Z,30.21
2022-08-02T12:20:22.698Z,30.96
2022-08-02T12:22:52.250Z,30.74
2022-08-02T12:25:34.554Z,31.49
2022-08-02T12:28:18.737Z,32.10
2022-08-02T12:30:58.105Z,31.28
2022-08-02T12:33:28.949Z,31.24
2022-08-02T12:35:57.430Z,31.27
2022-08-02T12:38:27.820Z,31.00
2022-08-02T12:40:56.153Z,31.06
2022-08-02T12:43:26.173Z,31.84
2022-08-02T12:45:56.644Z,32.32
2022-08-02T12:48:38.294Z,31.51
2022-08-02T12:51:22.834Z,31.47
2022-08-02T12:53:59.920Z,31.53
2022-08-02T12:56:30.993Z,31.46
2022-08-02T12:59:01.171Z,31.37
2022-08-02T13:01:30.396Z,30.99
2022-08-02T13:04:11.579Z,31.37
2022-08-02T13:06:44.596Z,32.36
2022-08-02T13:09:16.398Z,33.20
2022-08-02T13:11:44.980Z,33.79
2022-08-02T13:14:15.111Z,33.39
2022-08-02T13:16:46.018Z,33.02
2022-08-02T13:19:15.680Z,32.84
2022-08-02T13:22:02.008Z,32.57
2022-08-02T13:24:39.673Z,32.64
2022-08-02T13:27:10.205Z,33.37
2022-08-02T13:29:40.156Z,33.79
2022-08-02T13:32:08.424Z,34.30
2022-08-02T13:34:37.028Z,33.87
2022-08-02T13:37:05.647Z,33.58
2022-08-02T13:39:33.932Z,33.73
2022-08-02T13:42:02.047Z,33.65
2022-08-02T13:44:30.195Z,33.66
2022-08-02T13:46:59.795Z,32.47
2022-08-02T13:49:50.130Z,31.89
2022-08-02T13:52:16.537Z,31.48
2022-08-02T13:54:44.997Z,31.24
2022-08-02T13:57:13.580Z,31.24
2022-08-02T13:59:56.654Z,31.29
2022-08-02T14:02:29.144Z,30.82
2022-08-02T14:04:57.991Z,31.01
2022-08-02T14:07:26.140Z,31.83
2022-08-02T14:09:57.321Z,32.44
2022-08-02T14:12:27.257Z,32.28
2022-08-02T14:14:55.395Z,32.36
2022-08-02T14:17:23.696Z,33.03
2022-08-02T14:19:53.340Z,33.41
2022-08-02T14:22:21.635Z,33.85
2022-08-02T14:24:49.963Z,33.78
2022-08-02T14:27:18.152Z,33.72
2022-08-02T14:29:47.992Z,34.44
2022-08-02T14:32:19.144Z,34.26
2022-08-02T14:34:47.274Z,34.87
2022-08-02T14:37:18.695Z,34.76
2022-08-02T14:40:00.351Z,35.01
2022-08-02T14:42:29.305Z,34.95
2022-08-02T14:44:57.708Z,34.80
2022-08-02T14:47:25.911Z,34.81
2022-08-02T14:49:57.254Z,35.71
2022-08-02T14:52:26.880Z,35.80
2022-08-02T14:54:55.856Z,35.00
2022-08-02T14:57:24.230Z,34.86
2022-08-02T14:59:54.167Z,34.40
2022-08-02T15:02:22.376Z,34.11
2022-08-02T15:04:50.550Z,34.04
2022-08-02T15:07:20.040Z,34.32
2022-08-02T15:09:49.699Z,35.12
2022-08-02T15:12:18.303Z,35.15
2022-08-02T15:14:46.646Z,35.20
2022-08-02T15:17:14.878Z,34.20
2022-08-02T15:19:59.539Z,34.08
2022-08-02T15:22:28.797Z,34.36
2022-08-02T15:25:00.569Z,34.13
2022-08-02T15:27:28.757Z,34.34
2022-08-02T15:30:00.506Z,35.00
2022-08-02T15:32:29.353Z,34.94
2022-08-02T15:34:57.503Z,35.83
2022-08-02T15:37:26.088Z,35.25
2022-08-02T15:40:01.303Z,35.38
2022-08-02T15:42:30.213Z,35.41
2022-08-02T15:45:00.209Z,35.02
2022-08-02T15:47:28.479Z,35.34
2022-08-02T15:49:56.874Z,35.47
2022-08-02T15:52:29.250Z,35.13
2022-08-02T15:55:06.968Z,35.20
2022-08-02T15:57:36.398Z,35.52
2022-08-02T16:00:06.198Z,35.01
2022-08-02T16:02:47.587Z,33.35
2022-08-02T16:05:17.899Z,32.73
2022-08-02T16:07:46.632Z,31.77
2022-08-02T16:10:17.572Z,31.74
2022-08-02T16:12:45.834Z,31.41
2022-08-02T16:15:14.361Z,31.46
2022-08-02T16:17:51.293Z,31.35
2022-08-02T16:20:23.601Z,31.11
2022-08-02T16:22:51.899Z,30.99
2022-08-02T16:25:21.466Z,31.02
2022-08-02T16:28:00.179Z,30.78
2022-08-02T16:30:35.007Z,30.79
2022-08-02T16:33:03.290Z,30.70
2022-08-02T16:35:31.390Z,30.75
2022-08-02T16:37:59.590Z,30.91
2022-08-02T16:40:29.234Z,30.97
2022-08-02T16:42:57.542Z,31.05
2022-08-02T16:45:28.463Z,30.75
2022-08-02T16:48:03.798Z,30.74
2022-08-02T16:50:33.826Z,30.63
2022-08-02T16:55:53.284Z,30.29
2022-08-02T16:58:21.443Z,30.31
2022-08-02T17:00:49.702Z,30.25
2022-08-02T17:03:18.767Z,30.25
2022-08-02T17:05:56.736Z,30.26
2022-08-02T17:08:31.734Z,30.25
2022-08-02T17:11:03.659Z,30.14
2022-08-02T17:13:37.922Z,30.13
2022-08-02T17:16:25.666Z,30.08
2022-08-02T17:18:55.492Z,30.00
2022-08-02T17:21:23.900Z,29.95
2022-08-02T17:24:08.400Z,29.82
2022-08-02T17:26:39.117Z,29.84
2022-08-02T17:29:14.291Z,29.77
2022-08-02T17:32:05.714Z,29.75
2022-08-02T17:34:37.850Z,29.77
2022-08-02T17:37:06.811Z,29.79
2022-08-02T17:39:43.911Z,29.73
2022-08-02T17:42:24.098Z,29.62
2022-08-02T17:44:54.115Z,29.53
2022-08-02T17:47:22.448Z,29.46
2022-08-02T17:49:52.584Z,29.48
2022-08-02T17:52:51.432Z,29.42
2022-08-02T17:55:13.681Z,29.32
2022-08-02T17:57:57.044Z,29.22
2022-08-02T18:00:33.782Z,29.17
2022-08-02T18:03:06.146Z,29.06
2022-08-02T18:05:40.055Z,28.94
2022-08-02T18:08:25.715Z,28.81
2022-08-02T18:10:54.414Z,28.73
2022-08-02T18:13:24.562Z,28.72
2022-08-02T18:15:57.337Z,28.61
2022-08-02T18:21:22.543Z,28.40
2022-08-02T18:23:58.746Z,28.32
2022-08-02T18:26:28.738Z,28.28
2022-08-02T18:28:59.673Z,28.20
2022-08-02T18:31:28.121Z,28.14
2022-08-02T18:34:02.017Z,28.15
2022-08-02T18:36:31.441Z,28.10
2022-08-02T18:39:00.359Z,28.04
2022-08-02T18:41:38.122Z,28.01
2022-08-02T18:44:07.965Z,28.01
2022-08-02T18:46:37.114Z,27.93
2022-08-02T18:49:14.803Z,27.94
2022-08-02T18:51:55.421Z,27.92
2022-08-02T18:54:26.709Z,27.87
2022-08-02T18:57:00.797Z,27.85
2022-08-02T18:59:37.456Z,27.81
2022-08-02T19:02:05.709Z,27.76
2022-08-02T19:04:34.225Z,27.73
2022-08-02T19:07:07.688Z,27.65
2022-08-02T19:09:40.179Z,27.61
2022-08-02T19:12:11.604Z,27.59
2022-08-02T19:14:42.124Z,27.59
2022-08-02T19:17:15.753Z,27.56
2022-08-02T19:19:58.824Z,27.51
2022-08-02T19:22:27.695Z,27.52
2022-08-02T19:24:59.896Z,27.51
2022-08-02T19:27:32.604Z,27.51
2022-08-02T19:30:03.609Z,27.46
2022-08-02T19:32:42.506Z,27.37
2022-08-02T19:35:30.935Z,27.30
2022-08-02T19:38:09.328Z,27.12
2022-08-02T19:40:38.790Z,27.07
2022-08-02T19:44:24.211Z,27.04
2022-08-02T19:45:57.492Z,26.85
2022-08-02T19:48:28.139Z,26.65
2022-08-02T19:51:00.826Z,26.55
2022-08-02T19:53:48.188Z,26.49
2022-08-02T19:56:20.870Z,26.45
2022-08-02T19:58:51.195Z,26.40
2022-08-02T20:01:28.425Z,26.35
2022-08-02T20:04:13.338Z,26.29
2022-08-02T20:06:45.370Z,26.30
2022-08-02T20:09:16.687Z,26.27
2022-08-02T20:11:54.079Z,26.23
2022-08-02T20:14:26.639Z,26.17
2022-08-02T20:16:57.544Z,26.15
2022-08-02T20:19:29.086Z,26.08
2022-08-02T20:21:59.502Z,26.10
2022-08-02T20:24:29.683Z,26.11
2022-08-02T20:26:59.295Z,26.11
2022-08-02T20:29:43.114Z,26.15
2022-08-02T20:32:22.865Z,26.16
2022-08-02T20:34:52.700Z,26.08
2022-08-02T20:37:59.422Z,25.98
2022-08-02T20:40:16.694Z,25.87
2022-08-02T20:42:47.994Z,25.85
2022-08-02T20:45:16.479Z,25.63
2022-08-02T20:47:50.895Z,25.58
2022-08-02T20:50:38.742Z,25.56
2022-08-02T20:53:24.220Z,25.54
2022-08-02T20:55:56.207Z,25.50
2022-08-02T20:58:27.006Z,25.39
2022-08-02T21:00:59.292Z,25.31
2022-08-02T21:03:38.845Z,25.25
2022-08-02T21:06:08.967Z,25.23
2022-08-02T21:08:38.412Z,25.30
2022-08-02T21:11:09.329Z,25.33
2022-08-02T21:13:46.499Z,25.26
2022-08-02T21:16:19.287Z,25.18
2022-08-02T21:18:55.811Z,25.11
2022-08-02T21:21:29.750Z,25.12
2022-08-02T21:23:58.854Z,24.97
2022-08-02T21:26:31.118Z,24.86
2022-08-02T21:29:03.563Z,24.85
2022-08-02T21:31:33.404Z,24.75
2022-08-02T21:34:27.391Z,24.63
2022-08-02T21:36:56.147Z,24.57
2022-08-02T21:39:24.635Z,24.53
2022-08-02T21:41:53.159Z,24.50
2022-08-02T21:44:22.842Z,24.48
2022-08-02T21:46:52.433Z,24.48
2022-08-02T21:49:40.733Z,24.54
2022-08-02T21:52:11.357Z,24.58
2022-08-02T21:54:41.006Z,24.54
2022-08-02T21:57:15.144Z,24.35
2022-08-02T21:59:45.253Z,24.28
2022-08-02T22:02:14.031Z,24.18
2022-08-02T22:04:47.797Z,24.12
2022-08-02T22:07:23.840Z,24.04
2022-08-02T22:10:09.063Z,23.97
2022-08-02T22:12:38.091Z,23.92
2022-08-02T22:15:10.242Z,23.93
2022-08-02T22:17:51.687Z,23.82
2022-08-02T22:20:23.494Z,23.88
2022-08-02T22:22:52.689Z,23.89
2022-08-02T22:25:36.590Z,23.59
2022-08-02T22:28:38.342Z,23.43
2022-08-02T22:30:57.223Z,23.57
2022-08-02T22:33:47.144Z,23.63
2022-08-02T22:36:30.559Z,23.52
2022-08-02T22:38:59.117Z,23.61
2022-08-02T22:42:01.444Z,23.71
2022-08-02T22:44:18.537Z,23.66
2022-08-02T22:46:49.886Z,23.54
2022-08-02T22:52:07.865Z,23.41
2022-08-02T22:54:36.242Z,23.35
2022-08-02T22:57:06.375Z,23.27
2022-08-02T22:58:35.329Z,30.53
2022-08-02T22:58:43.670Z,28.50
2022-08-02T22:59:09.878Z,23.46
2022-08-02T22:59:39.380Z,23.23
2022-08-02T23:02:08.528Z,23.20
2022-08-02T23:04:37.137Z,23.16
2022-08-02T23:07:05.592Z,23.14
2022-08-02T23:09:35.162Z,23.11
2022-08-02T23:12:03.303Z,23.09
2022-08-02T23:14:31.465Z,23.10
2022-08-02T23:17:17.044Z,23.11
2022-08-02T23:19:54.440Z,23.11
2022-08-02T23:22:29.821Z,23.18
2022-08-02T23:25:02.813Z,23.16
2022-08-02T23:27:31.341Z,23.13
2022-08-02T23:30:00.283Z,23.13
2022-08-02T23:32:29.130Z,23.09
2022-08-02T23:34:58.580Z,23.05
2022-08-02T23:37:26.797Z,23.02
2022-08-02T23:39:55.320Z,23.00
2022-08-02T23:42:25.489Z,23.00
2022-08-02T23:44:53.895Z,22.99
2022-08-02T23:47:22.270Z,22.99
2022-08-02T23:49:50.436Z,22.91
2022-08-02T23:52:19.022Z,22.93
2022-08-02T23:54:47.276Z,22.87
2022-08-02T23:57:20.510Z,22.83
2022-08-02T23:59:52.009Z,22.82
